Airfield :
LOGIN :

Register | Disclaimer

   EN    FR    IT 

 










Legend :    VFR   Marginal VFR   IFR   Intensive IFR   Very Intensive IFR
Visi :
Ceiling :
>= 8 km
>= 3000ft
5 to 8 km
1000 to 3000 ft
1500m to 5 km
500 to 1000 ft
800 to 1500m
200 to 500 ft
< 800m
< 200 ft
Symbols :   Thunderstorms  Fog  Heavy snow  Heavy precipitations  Wind > 20 kt
SIGMETs :     Misc.  Thunderstorms  Icing  Turbulence  Mountain Waves  Volcanic Ashes






- Airport Elevation : 218 ft


EGYD - RAF Cranwell

CURRENT METAR :
  • 070750Z 21017KT 9999 FEW009 13/11 Q1016 NOSIG RMK BLU BLU

EXPIRED METARs :
  • 070720Z 21017KT 9999 FEW008 12/10 Q1016 NOSIG RMK BLU BLU
  • 070650Z 22016KT 9999 FEW008 SCT250 12/10 Q1016 NOSIG RMK BLU BLU
  • 070620Z 22018KT 9999 FEW012 BKN250 12/10 Q1016 NOSIG RMK BLU BLU
  • 070550Z 21016KT 9999 FEW010 BKN250 12/11 Q1016 NOSIG RMK BLU BLU
  • 070520Z AUTO 21018KT 9999 NCD 12/11 Q1017
  • 070450Z AUTO 21017KT 9999 NCD 12/11 Q1017

TAF TAF EGYD
Valid from the 07 at 06:00 until the 07 at 15:00 UTC


070523Z 0706/0715 22016KT 9999 FEW030
BECMG 0706/0709 22018G28KT
TEMPO 0712/0715 6000 RA
PROB40
TEMPO 0712/0714 23028G38KT 3000 +SHRA BKN022TCU
BECMG 0713/0715 27014KT



MET'MAP, your aeronautical weather chart ! - Copyright ORBIFLY December 2007 - Disclaimer

ORBIFLY MET'MAP TEAM :

Programming & Development : Alexandra Zaïnal
Original concept : Baudouin d'Aumeries
Technical & hardware support : Manuel Goepfert
Assistance : Marc-Olivier Méhu




SOURCES & CREDITS :

   NOAA